Aeroporto :
LOGIN :

Iscrizione | Disclaimer

   EN    FR    IT 

 










Sommario :    VFR   VFR Marginale   IFR   IFR Intensivo   IFR Molto Intensivo
Visibilità : 
Base nubi : 
>= 8 km
>= 3000ft
5 / 8 km
1000 / 3000 ft
1500m / 5 km
500 / 1000 ft
800 / 1500m
200 / 500 ft
< 800m
< 200 ft
Simboli :   Temporali  Nebbia  Neve Forte  Precipitazioni Forti  Vento > 20 kt
SIGMETs :   Varie  Temporali  Ghiacco  Turbolenza  Onda orograficha  Ceneri Vulcaniche






- Altitudine del aeroporto : 24 ft
- Codice IATA : SGD


EKSB - Sonderborg

ULTIMO METAR :
  • 220620Z 15003KT 1500 R14/0275N R32/P1500U BR SCT003 10/10 Q1011

METARs OBSOLETI :
  • 220550Z 11002KT 0100 R14/0275N R32/M0200N FG VV001 09/09 Q1011
  • 220520Z 12001KT 0200 R14/0225N R32/0275D FG VV001 09/09 Q1011
  • 220450Z 15001KT 0400 R14/0300N R32/1300U FG VV001 09/09 Q1011
  • 220426Z 15002KT 0100 R14/M0200N R32/0300N FG VV001 10/10 Q1011
  • 220350Z AUTO 15001KT 0100NDV R14/0375N R32/0550N -SHRA FG ///////// 10/10 Q1011

TAF TAF EKSB
Valido dal 22 a 06 ore il 22 a 15 ore UTC


220556Z 2206/2215 15002KT 0100 FG VV001
TEMPO 2206/2207 1500 BCFG SCT001
BECMG 2207/2209 9999 NSW SCT003



MetMap, La meteo Aeronautica in un colpo d'occhio ! - Copyright ORBIFLY Dicembre 2007 - Disclaimer

ORBIFLY MET'MAP TEAM :

Programmazione e sviluppo : Alexandra Zaïnal
Concezione : Baudouin d'Aumeries
Aiuto per la programmazione : Marc-Olivier Méhu
Supporto tecnico e logistico : Manuel Goepfert
Aiuto per la traduzione : Arnaldo La Scala

Contatto : metmap@orbifly.com




FONTI E CREDITI :

   NOAA